createdAt,value
2017-07-20T00:00:13.680Z,9.25
2017-07-20T00:02:40.190Z,6.10
2017-07-20T00:05:06.672Z,6.60
2017-07-20T00:07:33.601Z,5.53
2017-07-20T00:10:01.037Z,7.53
2017-07-20T00:12:27.487Z,7.78
2017-07-20T00:14:54.665Z,7.50
2017-07-20T00:17:22.015Z,7.25
2017-07-20T00:19:48.443Z,8.20
2017-07-20T00:22:14.915Z,7.62
2017-07-20T00:24:41.345Z,6.35
2017-07-20T00:27:07.815Z,7.72
2017-07-20T00:29:34.267Z,7.43
2017-07-20T00:32:00.703Z,7.85
2017-07-20T00:34:27.141Z,6.18
2017-07-20T00:36:53.552Z,7.10
2017-07-20T00:39:19.976Z,8.10
2017-07-20T00:41:46.506Z,8.30
2017-07-20T00:44:12.959Z,8.30
2017-07-20T00:46:39.378Z,8.00
2017-07-20T00:49:05.838Z,6.60
2017-07-20T00:51:32.261Z,7.03
2017-07-20T00:53:59.007Z,6.12
2017-07-20T00:56:25.438Z,6.80
2017-07-20T00:58:52.599Z,5.72
2017-07-20T01:01:19.790Z,6.47
2017-07-20T01:03:46.227Z,5.93
2017-07-20T01:06:13.391Z,7.32
2017-07-20T01:08:40.290Z,6.55
2017-07-20T01:11:07.325Z,10.05
2017-07-20T01:13:33.777Z,6.90
2017-07-20T01:16:00.224Z,9.88
2017-07-20T01:18:26.669Z,8.02
2017-07-20T01:20:53.079Z,6.80
2017-07-20T01:23:19.491Z,6.60
2017-07-20T01:25:45.923Z,8.75
2017-07-20T01:28:12.446Z,6.73
2017-07-20T01:30:39.001Z,6.60
2017-07-20T01:33:05.459Z,6.57
2017-07-20T01:35:31.912Z,4.70
2017-07-20T01:37:58.370Z,7.97
2017-07-20T01:40:24.858Z,5.70
2017-07-20T01:42:51.306Z,4.62
2017-07-20T01:45:17.800Z,6.28
2017-07-20T01:47:45.102Z,4.85
2017-07-20T01:50:12.330Z,8.70
2017-07-20T01:52:38.846Z,8.20
2017-07-20T01:55:05.408Z,7.68
2017-07-20T01:57:31.878Z,7.35
2017-07-20T01:59:58.331Z,5.82
2017-07-20T02:02:24.836Z,4.90
2017-07-20T02:04:51.295Z,5.47
2017-07-20T02:07:17.767Z,5.80
2017-07-20T02:09:45.021Z,6.37
2017-07-20T02:12:11.478Z,5.53
2017-07-20T02:14:37.925Z,7.05
2017-07-20T02:17:04.377Z,4.68
2017-07-20T02:19:30.829Z,5.62
2017-07-20T02:21:57.343Z,6.25
2017-07-20T02:24:23.773Z,4.28
2017-07-20T02:26:50.216Z,7.15
2017-07-20T02:29:17.370Z,3.97
2017-07-20T02:31:44.275Z,4.93
2017-07-20T02:34:11.449Z,4.55
2017-07-20T02:36:38.617Z,6.57
2017-07-20T02:39:05.816Z,7.03
2017-07-20T02:41:32.274Z,4.63
2017-07-20T02:43:58.824Z,3.53
2017-07-20T02:46:25.260Z,5.18
2017-07-20T02:48:52.428Z,3.90
2017-07-20T02:51:19.619Z,4.05
2017-07-20T02:53:46.818Z,3.33
2017-07-20T02:56:13.254Z,4.25
2017-07-20T02:58:39.710Z,5.12
2017-07-20T03:01:06.172Z,4.10
2017-07-20T03:03:32.622Z,4.12
2017-07-20T03:05:59.015Z,4.40
2017-07-20T03:08:25.499Z,3.85
2017-07-20T03:10:52.264Z,4.57
2017-07-20T03:13:18.704Z,4.25
2017-07-20T03:15:45.093Z,3.25
2017-07-20T03:18:12.293Z,5.30
2017-07-20T03:20:38.745Z,4.40
2017-07-20T03:23:05.175Z,4.30
2017-07-20T03:25:32.336Z,4.00
2017-07-20T03:27:58.798Z,4.78
2017-07-20T03:30:25.280Z,3.07
2017-07-20T03:32:51.746Z,4.43
2017-07-20T03:35:18.190Z,3.65
2017-07-20T03:37:44.640Z,3.95
2017-07-20T03:40:11.821Z,3.50
2017-07-20T03:42:38.248Z,3.25
2017-07-20T03:45:04.680Z,4.50
2017-07-20T03:47:31.187Z,4.50
2017-07-20T03:49:57.650Z,3.83
2017-07-20T03:52:24.114Z,3.05
2017-07-20T03:54:51.010Z,3.53
2017-07-20T03:57:17.463Z,3.67
2017-07-20T03:59:43.901Z,3.37
2017-07-20T04:02:10.436Z,3.60
2017-07-20T04:04:36.860Z,4.00
2017-07-20T04:07:03.290Z,4.70
2017-07-20T04:09:29.804Z,4.50
2017-07-20T04:11:56.240Z,4.30
2017-07-20T04:14:23.388Z,3.20
2017-07-20T04:16:49.825Z,5.03
2017-07-20T04:19:16.217Z,3.85
2017-07-20T04:21:42.649Z,3.70
2017-07-20T04:24:09.086Z,2.87
2017-07-20T04:26:35.542Z,3.80
2017-07-20T04:29:01.972Z,2.97
2017-07-20T04:31:28.405Z,4.10
2017-07-20T04:33:54.826Z,3.10
2017-07-20T04:36:21.234Z,5.03
2017-07-20T04:38:47.695Z,4.25
2017-07-20T04:41:14.122Z,4.15
2017-07-20T04:43:40.568Z,2.93
2017-07-20T04:46:06.996Z,3.00
2017-07-20T04:48:34.052Z,3.55
2017-07-20T04:51:00.485Z,3.47
2017-07-20T04:53:26.923Z,2.30
2017-07-20T04:55:54.093Z,3.85
2017-07-20T04:58:21.289Z,3.43
2017-07-20T05:00:47.724Z,3.47
2017-07-20T05:03:14.173Z,2.80
2017-07-20T05:05:41.345Z,3.78
2017-07-20T05:08:08.638Z,4.40
2017-07-20T05:10:35.119Z,3.60
2017-07-20T05:13:01.549Z,2.12
2017-07-20T05:15:28.723Z,3.87
2017-07-20T05:17:55.283Z,3.65
2017-07-20T05:20:21.715Z,4.68
2017-07-20T05:22:48.156Z,2.80
2017-07-20T05:25:15.077Z,5.60
2017-07-20T05:27:41.514Z,3.20
2017-07-20T05:30:08.074Z,2.87
2017-07-20T05:32:34.524Z,3.28
2017-07-20T05:35:01.726Z,3.95
2017-07-20T05:37:28.686Z,4.22
2017-07-20T05:39:55.832Z,3.50
2017-07-20T05:42:22.393Z,4.20
2017-07-20T05:44:49.621Z,2.75
2017-07-20T05:47:16.035Z,3.30
2017-07-20T05:49:42.803Z,2.90
2017-07-20T05:52:09.223Z,2.50
2017-07-20T05:54:35.679Z,3.92
2017-07-20T05:57:02.135Z,3.05
2017-07-20T05:59:28.577Z,3.03
2017-07-20T06:01:55.077Z,2.90
2017-07-20T06:04:21.497Z,3.17
2017-07-20T06:06:47.937Z,3.10
2017-07-20T06:09:14.393Z,2.10
2017-07-20T06:11:40.830Z,2.62
2017-07-20T06:14:07.835Z,3.42
2017-07-20T06:16:34.260Z,2.72
2017-07-20T06:19:00.703Z,3.25
2017-07-20T06:21:27.134Z,2.60
2017-07-20T06:23:53.564Z,2.87
2017-07-20T06:26:19.976Z,2.00
2017-07-20T06:28:46.416Z,3.25
2017-07-20T06:31:27.744Z,3.35
2017-07-20T06:33:54.186Z,4.20
2017-07-20T06:36:20.630Z,5.72
2017-07-20T06:38:47.058Z,3.65
2017-07-20T06:41:13.469Z,2.75
2017-07-20T06:43:39.908Z,4.07
2017-07-20T06:46:06.367Z,3.00
2017-07-20T06:48:32.808Z,2.80
2017-07-20T06:50:59.251Z,2.40
2017-07-20T06:53:25.699Z,2.97
2017-07-20T06:55:52.137Z,6.40
2017-07-20T06:58:19.328Z,2.85
2017-07-20T07:00:45.773Z,2.20
2017-07-20T07:03:12.743Z,2.03
2017-07-20T07:05:39.206Z,2.00
2017-07-20T07:08:05.753Z,2.65
2017-07-20T07:10:32.720Z,3.62
2017-07-20T07:12:59.209Z,2.20
2017-07-20T07:15:25.840Z,2.95
2017-07-20T07:17:52.914Z,2.67
2017-07-20T07:20:19.468Z,2.50
2017-07-20T07:22:46.846Z,1.90
2017-07-20T07:25:13.320Z,3.03
2017-07-20T07:27:39.759Z,2.90
2017-07-20T07:30:06.317Z,3.00
2017-07-20T07:32:32.874Z,3.65
2017-07-20T07:34:59.432Z,3.00
2017-07-20T07:37:25.940Z,4.03
2017-07-20T07:39:52.425Z,5.10
2017-07-20T07:42:19.662Z,4.30
2017-07-20T07:44:46.253Z,3.47
2017-07-20T07:47:12.740Z,3.58
2017-07-20T07:49:39.187Z,2.97
2017-07-20T07:52:06.357Z,4.47
2017-07-20T07:54:33.549Z,4.85
2017-07-20T07:57:00.026Z,2.65
2017-07-20T07:59:26.436Z,3.15
2017-07-20T08:01:53.609Z,3.92
2017-07-20T08:04:20.808Z,4.10
2017-07-20T08:06:47.236Z,2.80
2017-07-20T08:09:14.426Z,3.50
2017-07-20T08:11:40.846Z,3.67
2017-07-20T08:14:07.296Z,3.50
2017-07-20T08:16:33.740Z,3.22
2017-07-20T08:19:00.201Z,3.40
2017-07-20T08:21:26.647Z,5.47
2017-07-20T08:23:53.130Z,3.03
2017-07-20T08:26:19.591Z,3.20
2017-07-20T08:28:46.619Z,4.28
2017-07-20T08:31:13.096Z,4.90
2017-07-20T08:33:39.586Z,3.05
2017-07-20T08:36:06.120Z,4.00
2017-07-20T08:38:33.337Z,4.70
2017-07-20T08:41:14.693Z,4.07
2017-07-20T08:43:41.872Z,5.20
2017-07-20T08:46:09.035Z,5.32
2017-07-20T08:48:35.447Z,3.80
2017-07-20T08:51:01.897Z,3.95
2017-07-20T08:53:28.333Z,4.28
2017-07-20T08:55:54.808Z,5.00
2017-07-20T08:58:21.238Z,4.30
2017-07-20T09:00:48.284Z,3.70
2017-07-20T09:03:14.767Z,5.32
2017-07-20T09:05:41.216Z,4.12
2017-07-20T09:08:08.398Z,6.50
2017-07-20T09:10:34.850Z,4.12
2017-07-20T09:13:16.209Z,4.85
2017-07-20T09:15:42.626Z,5.07
2017-07-20T09:18:09.246Z,5.80
2017-07-20T09:20:35.699Z,6.95
2017-07-20T09:23:03.035Z,5.40
2017-07-20T09:25:29.691Z,4.90
2017-07-20T09:27:56.139Z,4.53
2017-07-20T09:30:22.617Z,4.32
2017-07-20T09:32:49.053Z,4.90
2017-07-20T09:35:15.701Z,4.70
2017-07-20T09:37:42.568Z,6.40
2017-07-20T09:40:09.013Z,4.10
2017-07-20T09:42:35.494Z,5.55
2017-07-20T09:45:14.602Z,5.40
2017-07-20T09:47:41.046Z,3.65
2017-07-20T09:50:07.504Z,6.32
2017-07-20T09:52:34.276Z,6.35
2017-07-20T09:55:00.708Z,6.45
2017-07-20T09:57:27.996Z,4.93
2017-07-20T09:59:54.720Z,4.82
2017-07-20T10:02:21.172Z,4.57
2017-07-20T10:04:47.609Z,5.05
2017-07-20T10:07:14.335Z,5.43
2017-07-20T10:09:40.741Z,5.60
2017-07-20T10:12:07.246Z,5.00
2017-07-20T10:14:33.649Z,5.32
2017-07-20T10:17:00.114Z,4.10
2017-07-20T10:19:26.551Z,7.35
2017-07-20T10:21:52.987Z,5.30
2017-07-20T10:24:19.448Z,5.90
2017-07-20T10:26:46.441Z,5.45
2017-07-20T10:29:12.898Z,4.70
2017-07-20T10:31:39.797Z,6.72
2017-07-20T10:34:06.968Z,4.50
2017-07-20T10:36:34.263Z,5.53
2017-07-20T10:39:00.822Z,5.82
2017-07-20T10:41:27.283Z,5.10
2017-07-20T10:43:54.047Z,5.00
2017-07-20T10:46:20.459Z,6.27
2017-07-20T10:48:46.962Z,5.00
2017-07-20T10:51:13.446Z,5.40
2017-07-20T10:53:39.904Z,6.30
2017-07-20T10:56:07.040Z,6.50
2017-07-20T10:58:33.488Z,6.00
2017-07-20T11:01:00.032Z,4.87
2017-07-20T11:03:27.212Z,5.28
2017-07-20T11:05:54.373Z,4.70
2017-07-20T11:08:21.569Z,8.73
2017-07-20T11:10:48.018Z,6.05
2017-07-20T11:13:15.299Z,7.15
2017-07-20T11:15:41.768Z,6.00
2017-07-20T11:18:08.314Z,5.27
2017-07-20T11:20:34.762Z,4.80
2017-07-20T11:23:01.183Z,6.72
2017-07-20T11:25:27.645Z,6.43
2017-07-20T11:27:54.737Z,5.25
2017-07-20T11:30:21.873Z,5.40
2017-07-20T11:32:48.306Z,6.72
2017-07-20T11:35:14.763Z,4.80
2017-07-20T11:37:41.226Z,6.30
2017-07-20T11:40:07.679Z,5.47
2017-07-20T11:42:34.086Z,6.45
2017-07-20T11:45:01.255Z,6.32
2017-07-20T11:47:28.424Z,6.90
2017-07-20T11:49:56.040Z,6.75
2017-07-20T11:52:22.464Z,5.50
2017-07-20T11:54:49.636Z,7.20
2017-07-20T11:57:16.418Z,6.13
2017-07-20T11:59:42.977Z,5.40
2017-07-20T12:02:09.442Z,5.32
2017-07-20T12:04:36.241Z,4.70
2017-07-20T12:07:02.755Z,5.80
2017-07-20T12:09:29.218Z,6.60
2017-07-20T12:11:56.063Z,4.82
2017-07-20T12:14:23.907Z,5.78
2017-07-20T12:16:51.442Z,7.00
2017-07-20T12:19:17.944Z,6.87
2017-07-20T12:21:44.461Z,4.70
2017-07-20T12:24:10.885Z,5.35
2017-07-20T12:26:37.341Z,5.50
2017-07-20T12:29:03.835Z,7.82
2017-07-20T12:31:30.300Z,7.22
2017-07-20T12:33:56.842Z,5.30
2017-07-20T12:36:23.401Z,6.90
2017-07-20T12:38:49.847Z,7.18
2017-07-20T12:41:16.314Z,6.05
2017-07-20T12:43:42.783Z,5.97
2017-07-20T12:46:09.214Z,9.40
2017-07-20T12:48:36.375Z,8.65
2017-07-20T12:51:17.718Z,7.53
2017-07-20T12:53:44.152Z,6.80
2017-07-20T12:56:10.596Z,7.22
2017-07-20T12:58:37.154Z,6.10
2017-07-20T13:01:18.646Z,7.37
2017-07-20T13:03:45.203Z,6.60
2017-07-20T13:06:11.665Z,6.90
2017-07-20T13:08:38.085Z,6.62
2017-07-20T13:11:04.629Z,9.48
2017-07-20T13:13:31.106Z,8.55
2017-07-20T13:15:57.535Z,7.50
2017-07-20T13:18:23.961Z,6.22
2017-07-20T13:20:50.409Z,8.93
2017-07-20T13:23:16.961Z,7.60
2017-07-20T13:25:43.389Z,10.55
2017-07-20T13:28:10.688Z,6.85
2017-07-20T13:30:37.159Z,8.68
2017-07-20T13:33:03.701Z,9.00
2017-07-20T13:35:30.156Z,7.22
2017-07-20T13:37:56.630Z,6.85
2017-07-20T13:40:23.157Z,8.40
2017-07-20T13:42:50.446Z,7.53
2017-07-20T13:45:16.911Z,8.23
2017-07-20T13:47:43.376Z,8.50
2017-07-20T13:50:09.918Z,10.80
2017-07-20T13:52:36.376Z,7.40
2017-07-20T13:55:03.037Z,8.05
2017-07-20T13:57:29.470Z,7.15
2017-07-20T13:59:56.052Z,6.93
2017-07-20T14:02:22.486Z,9.38
2017-07-20T14:04:50.163Z,7.60
2017-07-20T14:07:16.615Z,9.45
2017-07-20T14:09:43.207Z,8.00
2017-07-20T14:12:10.275Z,7.10
2017-07-20T14:14:36.915Z,8.20
2017-07-20T14:17:04.177Z,9.10
2017-07-20T14:19:30.637Z,8.13
2017-07-20T14:21:57.224Z,8.77
2017-07-20T14:24:24.582Z,8.73
2017-07-20T14:26:51.834Z,7.12
2017-07-20T14:29:18.303Z,8.70
2017-07-20T14:31:44.919Z,8.57
2017-07-20T14:34:11.374Z,7.30
2017-07-20T14:36:37.918Z,7.68
2017-07-20T14:39:04.477Z,8.00
2017-07-20T14:41:30.960Z,7.28
2017-07-20T14:43:57.407Z,8.05
2017-07-20T14:46:24.431Z,7.10
2017-07-20T14:48:51.636Z,9.63
2017-07-20T14:51:18.162Z,7.03
2017-07-20T14:53:44.765Z,7.45
2017-07-20T14:56:11.198Z,8.27
2017-07-20T14:58:37.852Z,7.65
2017-07-20T15:01:04.415Z,9.52
2017-07-20T15:03:30.975Z,10.10
2017-07-20T15:05:57.427Z,7.00
2017-07-20T15:08:23.847Z,7.47
2017-07-20T15:10:50.282Z,10.30
2017-07-20T15:13:17.111Z,6.43
2017-07-20T15:15:43.537Z,8.73
2017-07-20T15:18:10.747Z,6.40
2017-07-20T15:20:37.291Z,7.37
2017-07-20T15:23:03.752Z,6.97
2017-07-20T15:25:30.216Z,8.18
2017-07-20T15:27:56.712Z,8.93
2017-07-20T15:30:23.202Z,7.57
2017-07-20T15:32:50.374Z,8.35
2017-07-20T15:35:17.666Z,6.45
2017-07-20T15:37:44.220Z,7.30
2017-07-20T15:40:10.664Z,6.68
2017-07-20T15:42:37.852Z,6.50
2017-07-20T15:45:04.753Z,7.93
2017-07-20T15:47:31.287Z,9.73
2017-07-20T15:49:57.733Z,6.78
2017-07-20T15:52:24.222Z,6.70
2017-07-20T15:54:50.893Z,10.10
2017-07-20T15:57:17.363Z,7.30
2017-07-20T15:59:43.785Z,6.65
2017-07-20T16:02:10.327Z,5.90
2017-07-20T16:04:36.876Z,8.07
2017-07-20T16:07:03.362Z,6.18
2017-07-20T16:09:29.859Z,6.47
2017-07-20T16:11:56.268Z,6.37
2017-07-20T16:14:22.692Z,5.90
2017-07-20T16:16:49.868Z,6.87
2017-07-20T16:19:17.054Z,5.75
2017-07-20T16:21:43.502Z,6.37
2017-07-20T16:24:10.034Z,7.50
2017-07-20T16:26:37.186Z,6.80
2017-07-20T16:29:03.738Z,5.37
2017-07-20T16:31:30.168Z,7.00
2017-07-20T16:33:56.632Z,6.50
2017-07-20T16:36:23.177Z,6.60
2017-07-20T16:38:49.672Z,7.07
2017-07-20T16:41:16.172Z,6.65
2017-07-20T16:43:42.637Z,6.90
2017-07-20T16:46:09.189Z,6.80
2017-07-20T16:48:35.813Z,7.78
2017-07-20T16:51:02.405Z,7.53
2017-07-20T16:53:28.863Z,6.40
2017-07-20T16:55:55.313Z,6.22
2017-07-20T16:58:22.655Z,6.20
2017-07-20T17:00:49.198Z,5.70
2017-07-20T17:03:15.683Z,5.80
2017-07-20T17:05:42.883Z,6.00
2017-07-20T17:08:09.748Z,6.62
2017-07-20T17:10:36.256Z,6.00
2017-07-20T17:13:02.754Z,6.10
2017-07-20T17:15:30.142Z,6.47
2017-07-20T17:17:56.622Z,5.90
2017-07-20T17:20:23.055Z,6.55
2017-07-20T17:22:49.550Z,7.32
2017-07-20T17:25:16.588Z,6.62
2017-07-20T17:27:43.060Z,6.72
2017-07-20T17:30:09.485Z,6.30
2017-07-20T17:32:36.715Z,6.47
2017-07-20T17:35:03.751Z,6.93
2017-07-20T17:37:30.215Z,6.30
2017-07-20T17:39:56.653Z,7.03
2017-07-20T17:42:23.207Z,6.28
2017-07-20T17:44:49.657Z,6.78
2017-07-20T17:47:17.309Z,6.90
2017-07-20T17:49:43.781Z,6.40
2017-07-20T17:52:11.073Z,6.82
2017-07-20T17:54:37.589Z,6.03
2017-07-20T17:57:04.083Z,6.25
2017-07-20T17:59:30.648Z,5.75
2017-07-20T18:01:57.307Z,6.70
2017-07-20T18:04:23.767Z,6.25
2017-07-20T18:06:53.196Z,5.95
2017-07-20T18:09:20.180Z,7.10
2017-07-20T18:11:46.632Z,6.00
2017-07-20T18:14:13.232Z,5.80
2017-07-20T18:16:48.158Z,5.80
2017-07-20T18:19:21.585Z,5.43
2017-07-20T18:22:03.300Z,7.00
2017-07-20T18:24:30.568Z,6.25
2017-07-20T18:26:57.083Z,6.23
2017-07-20T18:29:24.338Z,6.62
2017-07-20T18:31:51.706Z,7.18
2017-07-20T18:34:20.103Z,6.20
2017-07-20T18:36:46.792Z,5.70
2017-07-20T18:39:13.937Z,6.17
2017-07-20T18:41:40.603Z,5.90
2017-07-20T18:44:07.099Z,5.87
2017-07-20T18:46:33.718Z,5.82
2017-07-20T18:49:00.680Z,6.20
2017-07-20T18:51:27.238Z,6.82
2017-07-20T18:53:53.706Z,6.37
2017-07-20T18:56:20.356Z,6.20
2017-07-20T18:58:47.569Z,6.20
2017-07-20T19:01:14.292Z,6.05
2017-07-20T19:03:40.828Z,6.40
2017-07-20T19:06:08.127Z,6.00
2017-07-20T19:08:34.681Z,5.90
2017-07-20T19:11:01.170Z,7.30
2017-07-20T19:13:27.802Z,6.15
2017-07-20T19:15:54.268Z,6.10
2017-07-20T19:18:20.764Z,6.50
2017-07-20T19:20:47.373Z,14.40
2017-07-20T19:23:14.240Z,15.10
2017-07-20T19:25:40.671Z,9.85
2017-07-20T19:28:07.879Z,7.25
2017-07-20T19:30:34.427Z,7.20
2017-07-20T19:33:00.962Z,5.90
2017-07-20T19:35:29.898Z,6.50
2017-07-20T19:37:56.455Z,7.40
2017-07-20T19:40:23.533Z,9.43
2017-07-20T19:42:50.294Z,8.57
2017-07-20T19:45:16.951Z,9.55
2017-07-20T19:47:43.513Z,10.48
2017-07-20T19:50:10.000Z,10.70
2017-07-20T19:52:36.827Z,9.95
2017-07-20T19:55:03.400Z,7.47
2017-07-20T19:57:29.944Z,8.15
2017-07-20T19:59:56.932Z,7.00
2017-07-20T20:02:23.480Z,7.65
2017-07-20T20:04:50.234Z,6.80
2017-07-20T20:07:16.792Z,7.22
2017-07-20T20:09:43.258Z,7.12
2017-07-20T20:12:09.734Z,8.60
2017-07-20T20:14:36.195Z,7.00
2017-07-20T20:17:02.722Z,7.70
2017-07-20T20:19:29.188Z,7.87
2017-07-20T20:21:55.734Z,7.40
2017-07-20T20:24:22.602Z,8.02
2017-07-20T20:26:49.061Z,7.82
2017-07-20T20:29:15.618Z,8.00
2017-07-20T20:31:42.150Z,8.75
2017-07-20T20:34:09.454Z,8.32
2017-07-20T20:36:35.938Z,8.52
2017-07-20T20:39:02.671Z,10.05
2017-07-20T20:41:29.132Z,9.60
2017-07-20T20:43:55.810Z,10.32
2017-07-20T20:46:22.251Z,10.05
2017-07-20T20:48:48.802Z,8.90
2017-07-20T20:51:15.299Z,10.60
2017-07-20T20:53:41.756Z,9.10
2017-07-20T20:56:08.370Z,9.30
2017-07-20T20:58:35.032Z,9.20
2017-07-20T21:01:03.065Z,9.30
2017-07-20T21:03:30.706Z,8.90
2017-07-20T21:05:57.176Z,9.30
2017-07-20T21:08:23.779Z,8.95
2017-07-20T21:10:50.384Z,9.52
2017-07-20T21:13:17.028Z,9.57
2017-07-20T21:15:44.209Z,9.00
2017-07-20T21:18:11.592Z,9.10
2017-07-20T21:20:38.105Z,10.13
2017-07-20T21:23:04.914Z,9.70
2017-07-20T21:25:31.472Z,9.80
2017-07-20T21:27:57.943Z,8.88
2017-07-20T21:30:24.486Z,9.43
2017-07-20T21:32:51.051Z,9.10
2017-07-20T21:35:17.500Z,9.07
2017-07-20T21:37:44.060Z,8.90
2017-07-20T21:40:10.455Z,9.10
2017-07-20T21:42:36.923Z,9.30
2017-07-20T21:45:03.435Z,8.93
2017-07-20T21:47:30.509Z,8.20
2017-07-20T21:49:57.057Z,9.00
2017-07-20T21:52:23.773Z,9.43
2017-07-20T21:54:50.195Z,8.73
2017-07-20T21:57:16.631Z,8.30
2017-07-20T21:59:43.070Z,8.30
2017-07-20T22:02:10.239Z,8.30
2017-07-20T22:04:37.399Z,8.07
2017-07-20T22:07:03.845Z,8.23
2017-07-20T22:09:30.301Z,8.10
2017-07-20T22:11:56.700Z,8.45
2017-07-20T22:14:23.257Z,7.80
2017-07-20T22:16:49.816Z,8.57
2017-07-20T22:19:16.258Z,8.30
2017-07-20T22:21:43.493Z,7.60
2017-07-20T22:24:09.996Z,8.10
2017-07-20T22:26:37.175Z,7.78
2017-07-20T22:29:03.588Z,7.75
2017-07-20T22:31:30.018Z,7.93
2017-07-20T22:33:56.452Z,8.00
2017-07-20T22:36:23.791Z,7.37
2017-07-20T22:38:50.207Z,7.62
2017-07-20T22:41:16.629Z,7.45
2017-07-20T22:43:43.069Z,8.05
2017-07-20T22:46:10.294Z,7.53
2017-07-20T22:48:36.714Z,7.60
2017-07-20T22:51:03.193Z,7.60
2017-07-20T22:53:29.671Z,7.37
2017-07-20T22:55:56.095Z,7.50
2017-07-20T22:58:22.568Z,7.35
2017-07-20T23:00:49.005Z,7.12
2017-07-20T23:03:15.409Z,6.95
2017-07-20T23:05:41.853Z,7.10
2017-07-20T23:08:08.281Z,6.55
2017-07-20T23:10:34.708Z,7.33
2017-07-20T23:13:01.886Z,7.03
2017-07-20T23:15:28.338Z,7.35
2017-07-20T23:17:55.519Z,6.57
2017-07-20T23:20:22.080Z,7.20
2017-07-20T23:22:48.632Z,8.10
2017-07-20T23:25:15.074Z,6.85
2017-07-20T23:27:42.364Z,6.50
2017-07-20T23:30:08.796Z,7.15
2017-07-20T23:32:35.224Z,7.70
2017-07-20T23:35:01.674Z,7.50
2017-07-20T23:37:28.582Z,7.70
2017-07-20T23:39:55.757Z,7.28
2017-07-20T23:42:23.043Z,7.28
2017-07-20T23:44:49.509Z,8.05
2017-07-20T23:47:16.059Z,7.32
2017-07-20T23:49:42.564Z,6.90
2017-07-20T23:52:08.989Z,7.50
2017-07-20T23:54:35.420Z,6.80
2017-07-20T23:57:02.611Z,6.50
2017-07-20T23:59:29.037Z,6.73
